createdAt,value
2022-12-26T00:00:55.295Z,87.61
2022-12-26T00:03:23.986Z,87.51
2022-12-26T00:05:54.687Z,87.48
2022-12-26T00:08:22.978Z,87.39
2022-12-26T00:10:51.344Z,87.35
2022-12-26T00:13:39.739Z,87.36
2022-12-26T00:16:12.017Z,87.41
2022-12-26T00:18:40.826Z,87.42
2022-12-26T00:21:11.010Z,87.33
2022-12-26T00:23:39.781Z,87.28
2022-12-26T00:26:10.449Z,87.09
2022-12-26T00:28:39.168Z,86.81
2022-12-26T00:31:09.335Z,86.57
2022-12-26T00:33:40.714Z,86.46
2022-12-26T00:36:11.021Z,86.45
2022-12-26T00:38:39.776Z,86.32
2022-12-26T00:41:09.851Z,86.19
2022-12-26T00:43:38.274Z,86.19
2022-12-26T00:46:07.486Z,86.16
2022-12-26T00:48:36.274Z,86.13
2022-12-26T00:51:06.701Z,85.94
2022-12-26T00:53:35.075Z,85.92
2022-12-26T00:56:03.861Z,85.92
2022-12-26T00:58:32.664Z,85.87
2022-12-26T01:01:08.015Z,85.60
2022-12-26T01:03:36.332Z,85.34
2022-12-26T01:06:06.375Z,85.27
2022-12-26T01:08:34.643Z,84.96
2022-12-26T01:11:06.450Z,84.97
2022-12-26T01:13:35.070Z,84.82
2022-12-26T01:16:03.627Z,84.70
2022-12-26T01:18:32.285Z,84.67
2022-12-26T01:21:07.485Z,84.50
2022-12-26T01:23:52.740Z,84.58
2022-12-26T01:26:34.979Z,84.70
2022-12-26T01:29:03.277Z,84.69
2022-12-26T01:31:31.632Z,84.64
2022-12-26T01:33:59.928Z,84.61
2022-12-26T01:36:28.160Z,84.77
2022-12-26T01:38:57.883Z,84.94
2022-12-26T01:41:26.850Z,85.03
2022-12-26T01:43:58.120Z,84.95
2022-12-26T01:46:31.268Z,84.85
2022-12-26T01:49:02.832Z,84.68
2022-12-26T01:51:34.712Z,84.53
2022-12-26T01:54:38.035Z,84.45
2022-12-26T01:56:55.273Z,84.39
2022-12-26T01:59:27.753Z,84.38
2022-12-26T02:01:56.984Z,84.29
2022-12-26T02:04:47.984Z,84.29
2022-12-26T02:07:16.448Z,84.49
2022-12-26T02:09:46.979Z,84.68
2022-12-26T02:12:34.784Z,84.85
2022-12-26T02:15:09.060Z,85.03
2022-12-26T02:17:39.026Z,85.25
2022-12-26T02:20:18.980Z,85.42
2022-12-26T02:23:22.302Z,85.55
2022-12-26T02:26:19.223Z,85.61
2022-12-26T02:29:05.882Z,85.63
2022-12-26T02:31:45.112Z,85.70
2022-12-26T02:34:17.265Z,85.70
2022-12-26T02:37:00.240Z,85.64
2022-12-26T02:39:48.318Z,85.45
2022-12-26T02:42:30.073Z,85.42
2022-12-26T02:45:24.144Z,85.30
2022-12-26T02:47:58.744Z,85.37
2022-12-26T02:51:11.256Z,85.51
2022-12-26T02:54:05.227Z,85.40
2022-12-26T02:56:55.358Z,85.26
2022-12-26T02:59:55.519Z,85.16
2022-12-26T03:02:49.349Z,84.84
2022-12-26T03:05:43.222Z,84.52
2022-12-26T03:08:34.177Z,84.47
2022-12-26T03:11:19.939Z,84.35
2022-12-26T03:13:50.652Z,84.19
2022-12-26T03:16:37.281Z,83.89
2022-12-26T03:19:08.658Z,83.49
2022-12-26T03:21:46.318Z,83.20
2022-12-26T03:24:18.071Z,82.91
2022-12-26T03:26:51.966Z,82.68
2022-12-26T03:29:39.326Z,82.31
2022-12-26T03:32:09.678Z,82.20
2022-12-26T03:34:42.555Z,82.01
2022-12-26T03:37:49.119Z,82.07
2022-12-26T03:40:57.442Z,82.15
2022-12-26T03:43:57.832Z,82.18
2022-12-26T03:46:52.548Z,82.04
2022-12-26T03:49:45.367Z,82.03
2022-12-26T03:52:40.929Z,82.07
2022-12-26T03:55:33.792Z,82.25
2022-12-26T03:58:25.413Z,82.12
2022-12-26T04:01:14.094Z,81.91
2022-12-26T04:04:03.044Z,81.66
2022-12-26T04:06:55.122Z,81.59
2022-12-26T04:09:46.771Z,81.14
2022-12-26T04:12:40.642Z,80.94
2022-12-26T04:15:36.264Z,80.98
2022-12-26T04:18:28.012Z,81.13
2022-12-26T04:21:07.856Z,81.08
2022-12-26T04:24:05.352Z,81.40
2022-12-26T04:26:55.748Z,81.62
2022-12-26T04:29:43.499Z,81.73
2022-12-26T04:32:35.407Z,81.57
2022-12-26T04:35:26.795Z,81.04
2022-12-26T04:38:15.522Z,80.40
2022-12-26T04:41:09.490Z,79.18
2022-12-26T04:43:57.346Z,78.78
2022-12-26T04:46:28.552Z,78.64
2022-12-26T04:49:14.756Z,78.31
2022-12-26T04:51:43.056Z,77.26
2022-12-26T04:54:11.345Z,77.03
2022-12-26T04:56:39.637Z,76.74
2022-12-26T04:59:07.880Z,76.06
2022-12-26T05:01:55.166Z,75.73
2022-12-26T05:04:40.786Z,75.78
2022-12-26T05:07:33.574Z,75.59
2022-12-26T05:10:02.305Z,75.76
2022-12-26T05:12:30.532Z,75.70
2022-12-26T05:14:58.804Z,75.67
2022-12-26T05:17:46.084Z,75.56
2022-12-26T05:20:46.574Z,75.90
2022-12-26T05:23:36.997Z,76.35
2022-12-26T05:26:23.190Z,75.92
2022-12-26T05:28:59.404Z,75.89
2022-12-26T05:31:34.622Z,76.16
2022-12-26T05:34:07.146Z,75.62
2022-12-26T05:36:39.424Z,75.50
2022-12-26T05:39:08.815Z,75.62
2022-12-26T05:41:37.273Z,75.21
2022-12-26T05:44:06.358Z,74.76
2022-12-26T05:46:34.971Z,74.72
2022-12-26T05:49:03.910Z,74.12
2022-12-26T05:51:33.562Z,73.97
2022-12-26T05:54:02.926Z,74.18
2022-12-26T05:56:31.356Z,74.46
2022-12-26T05:59:01.477Z,73.65
2022-12-26T06:01:31.178Z,73.92
2022-12-26T06:04:01.287Z,73.58
2022-12-26T06:06:30.190Z,73.19
2022-12-26T06:08:59.895Z,73.32
2022-12-26T06:11:28.615Z,72.84
2022-12-26T06:13:57.308Z,73.19
2022-12-26T06:16:25.728Z,72.96
2022-12-26T06:18:55.878Z,72.78
2022-12-26T06:21:24.255Z,73.14
2022-12-26T06:23:52.489Z,73.15
2022-12-26T06:26:22.178Z,73.12
2022-12-26T06:28:50.481Z,72.89
2022-12-26T06:31:21.477Z,73.08
2022-12-26T06:33:51.387Z,73.21
2022-12-26T06:36:22.282Z,73.51
2022-12-26T06:38:51.193Z,74.02
2022-12-26T06:41:22.755Z,73.82
2022-12-26T06:43:51.776Z,73.57
2022-12-26T06:46:22.355Z,73.41
2022-12-26T06:48:50.857Z,73.09
2022-12-26T06:51:21.073Z,73.22
2022-12-26T06:53:50.021Z,73.12
2022-12-26T06:56:19.962Z,72.83
2022-12-26T06:58:53.163Z,73.08
2022-12-26T07:01:22.460Z,72.83
2022-12-26T07:03:52.076Z,72.94
2022-12-26T07:06:24.874Z,72.45
2022-12-26T07:08:54.324Z,72.20
2022-12-26T07:11:24.537Z,71.67
2022-12-26T07:13:54.862Z,71.86
2022-12-26T07:16:23.660Z,71.92
2022-12-26T07:18:54.039Z,71.51
2022-12-26T07:21:22.561Z,71.77
2022-12-26T07:23:50.874Z,71.53
2022-12-26T07:26:19.718Z,71.61
2022-12-26T07:28:48.369Z,71.26
2022-12-26T07:31:20.313Z,71.42
2022-12-26T07:33:50.326Z,71.41
2022-12-26T07:36:20.622Z,71.64
2022-12-26T07:38:49.466Z,71.53
2022-12-26T07:41:34.899Z,71.72
2022-12-26T07:44:03.214Z,71.87
2022-12-26T07:46:33.076Z,71.80
2022-12-26T07:49:01.446Z,71.61
2022-12-26T07:51:29.950Z,71.71
2022-12-26T07:53:58.243Z,71.41
2022-12-26T07:56:26.493Z,71.56
2022-12-26T07:58:54.788Z,71.61
2022-12-26T08:01:23.160Z,71.76
2022-12-26T08:03:53.426Z,71.77
2022-12-26T08:06:22.303Z,71.67
2022-12-26T08:08:53.040Z,71.80
2022-12-26T08:11:24.354Z,71.79
2022-12-26T08:13:53.284Z,71.85
2022-12-26T08:16:22.040Z,71.43
2022-12-26T08:18:50.465Z,71.61
2022-12-26T08:21:20.081Z,71.35
2022-12-26T08:23:48.506Z,71.36
2022-12-26T08:26:22.481Z,71.42
2022-12-26T08:28:52.086Z,71.19
2022-12-26T08:31:21.532Z,71.34
2022-12-26T08:33:50.227Z,71.42
2022-12-26T08:36:20.022Z,71.53
2022-12-26T08:38:48.345Z,71.32
2022-12-26T08:41:17.695Z,71.35
2022-12-26T08:46:38.325Z,71.67
2022-12-26T08:49:06.691Z,71.47
2022-12-26T08:51:36.920Z,71.87
2022-12-26T08:54:06.046Z,71.55
2022-12-26T08:56:34.381Z,71.40
2022-12-26T08:59:02.657Z,71.63
2022-12-26T09:01:32.256Z,71.69
2022-12-26T09:04:06.727Z,71.96
2022-12-26T09:06:39.511Z,71.83
2022-12-26T09:09:11.276Z,72.01
2022-12-26T09:11:42.280Z,72.07
2022-12-26T09:14:11.286Z,72.32
2022-12-26T09:16:49.628Z,72.38
2022-12-26T09:19:19.539Z,72.30
2022-12-26T09:22:10.254Z,72.29
2022-12-26T09:24:38.603Z,72.39
2022-12-26T09:27:07.203Z,72.16
2022-12-26T09:29:35.689Z,71.96
2022-12-26T09:32:03.975Z,71.85
2022-12-26T09:34:32.842Z,71.93
2022-12-26T09:37:02.467Z,71.71
2022-12-26T09:39:30.847Z,71.84
2022-12-26T09:42:06.179Z,71.51
2022-12-26T09:44:45.058Z,71.76
2022-12-26T09:47:31.479Z,72.10
2022-12-26T09:50:04.302Z,71.62
2022-12-26T09:52:44.042Z,72.25
2022-12-26T09:55:33.207Z,72.55
2022-12-26T09:58:09.558Z,72.49
2022-12-26T10:00:44.830Z,72.79
2022-12-26T10:03:13.394Z,72.87
2022-12-26T10:05:56.577Z,73.19
2022-12-26T10:08:34.378Z,72.87
2022-12-26T10:11:04.159Z,72.51
2022-12-26T10:13:40.100Z,72.61
2022-12-26T10:16:15.329Z,72.95
2022-12-26T10:18:54.621Z,73.30
2022-12-26T10:21:36.317Z,73.31
2022-12-26T10:24:12.995Z,72.29
2022-12-26T10:26:45.124Z,73.06
2022-12-26T10:29:21.146Z,73.03
2022-12-26T10:31:54.751Z,72.59
2022-12-26T10:34:29.082Z,73.57
2022-12-26T10:37:01.780Z,74.14
2022-12-26T10:39:36.079Z,74.81
2022-12-26T10:42:13.099Z,74.18
2022-12-26T10:44:42.274Z,74.25
2022-12-26T10:47:24.988Z,74.06
2022-12-26T10:49:53.721Z,73.90
2022-12-26T10:52:26.706Z,74.19
2022-12-26T10:55:29.179Z,75.47
2022-12-26T10:57:51.380Z,74.48
2022-12-26T11:00:22.145Z,74.57
2022-12-26T11:03:04.463Z,74.73
2022-12-26T11:08:27.909Z,74.60
2022-12-26T11:11:06.737Z,74.33
2022-12-26T11:13:40.152Z,75.55
2022-12-26T11:16:09.586Z,74.77
2022-12-26T11:18:39.996Z,75.44
2022-12-26T11:21:14.931Z,74.73
2022-12-26T11:23:43.357Z,74.01
2022-12-26T11:26:23.622Z,73.74
2022-12-26T11:29:07.686Z,74.47
2022-12-26T11:31:36.132Z,74.54
2022-12-26T11:34:09.893Z,75.02
2022-12-26T11:36:45.780Z,74.73
2022-12-26T11:39:23.651Z,74.89
2022-12-26T11:41:54.297Z,73.90
2022-12-26T11:44:27.574Z,75.41
2022-12-26T11:46:59.063Z,75.86
2022-12-26T11:49:32.126Z,74.04
2022-12-26T11:52:02.061Z,74.76
2022-12-26T11:54:36.943Z,75.21
2022-12-26T11:57:16.349Z,74.64
2022-12-26T11:59:45.375Z,75.57
2022-12-26T12:02:30.957Z,75.64
2022-12-26T12:05:03.728Z,75.86
2022-12-26T12:07:55.895Z,75.78
2022-12-26T12:10:55.595Z,75.40
2022-12-26T12:13:46.144Z,76.15
2022-12-26T12:16:32.269Z,75.83
2022-12-26T12:19:15.451Z,76.03
2022-12-26T12:21:46.010Z,74.76
2022-12-26T12:24:49.441Z,77.69
2022-12-26T12:27:22.842Z,76.80
2022-12-26T12:30:07.552Z,76.47
2022-12-26T12:32:49.608Z,75.99
2022-12-26T12:35:39.363Z,75.41
2022-12-26T12:38:24.618Z,76.34
2022-12-26T12:40:58.677Z,76.08
2022-12-26T12:43:32.573Z,75.64
2022-12-26T12:46:10.372Z,74.57
2022-12-26T12:48:55.440Z,76.15
2022-12-26T12:51:35.952Z,75.57
2022-12-26T12:54:48.321Z,76.10
2022-12-26T12:57:24.424Z,75.75
2022-12-26T13:00:04.658Z,75.79
2022-12-26T13:02:39.827Z,75.18
2022-12-26T13:05:30.028Z,76.41
2022-12-26T13:08:03.554Z,76.14
2022-12-26T13:10:35.183Z,77.16
2022-12-26T13:13:19.303Z,76.16
2022-12-26T13:15:52.669Z,75.95
2022-12-26T13:18:24.785Z,75.95
2022-12-26T13:20:56.355Z,76.18
2022-12-26T13:23:53.697Z,76.52
2022-12-26T13:26:27.134Z,77.40
2022-12-26T13:29:02.214Z,77.93
2022-12-26T13:31:34.515Z,77.00
2022-12-26T13:34:06.579Z,77.40
2022-12-26T13:36:37.757Z,76.28
2022-12-26T13:39:36.808Z,76.21
2022-12-26T13:42:37.768Z,76.70
2022-12-26T13:45:56.592Z,76.60
2022-12-26T13:49:08.098Z,77.52
2022-12-26T13:51:49.935Z,78.34
2022-12-26T13:54:19.352Z,77.87
2022-12-26T13:57:21.078Z,77.23
2022-12-26T14:00:02.393Z,76.73
2022-12-26T14:03:20.591Z,77.96
2022-12-26T14:06:28.582Z,76.50
2022-12-26T14:09:29.111Z,77.86
2022-12-26T14:12:10.217Z,76.43
2022-12-26T14:14:54.418Z,76.44
2022-12-26T14:17:34.642Z,76.91
2022-12-26T14:20:13.557Z,76.98
2022-12-26T14:22:49.079Z,76.82
2022-12-26T14:25:24.339Z,76.81
2022-12-26T14:27:59.588Z,77.98
2022-12-26T14:30:35.379Z,76.02
2022-12-26T14:33:25.385Z,76.49
2022-12-26T14:36:06.786Z,76.76
2022-12-26T14:38:45.094Z,76.32
2022-12-26T14:41:35.832Z,77.63
2022-12-26T14:44:17.074Z,75.28
2022-12-26T14:47:01.681Z,74.94
2022-12-26T14:49:42.138Z,77.50
2022-12-26T14:52:40.722Z,76.88
2022-12-26T14:55:42.265Z,75.76
2022-12-26T14:58:27.024Z,77.34
2022-12-26T15:00:58.866Z,76.81
2022-12-26T15:03:44.800Z,77.98
2022-12-26T15:06:52.882Z,77.20
2022-12-26T15:10:08.733Z,76.72
2022-12-26T15:13:09.247Z,76.35
2022-12-26T15:16:01.193Z,77.48
2022-12-26T15:19:06.623Z,76.69
2022-12-26T15:22:01.785Z,76.22
2022-12-26T15:25:19.688Z,76.61
2022-12-26T15:28:27.431Z,76.86
2022-12-26T15:31:36.658Z,77.31
2022-12-26T15:34:29.587Z,76.27
2022-12-26T15:37:06.748Z,76.73
2022-12-26T15:39:42.179Z,77.18
2022-12-26T15:42:26.235Z,77.37
2022-12-26T15:45:09.827Z,76.57
2022-12-26T15:47:44.425Z,76.60
2022-12-26T15:50:25.079Z,76.87
2022-12-26T15:53:06.737Z,76.30
2022-12-26T15:55:53.254Z,76.58
2022-12-26T15:58:37.263Z,76.75
2022-12-26T16:01:07.096Z,76.57
2022-12-26T16:03:46.656Z,76.52
2022-12-26T16:06:40.819Z,76.47
2022-12-26T16:09:28.368Z,76.55
2022-12-26T16:11:58.561Z,76.26
2022-12-26T16:14:30.535Z,76.66
2022-12-26T16:17:11.966Z,76.53
2022-12-26T16:19:41.586Z,76.65
2022-12-26T16:22:35.967Z,76.16
2022-12-26T16:25:05.173Z,76.74
2022-12-26T16:27:33.694Z,76.73
2022-12-26T16:30:11.352Z,76.37
2022-12-26T16:32:42.500Z,76.60
2022-12-26T16:35:19.990Z,76.70
2022-12-26T16:37:50.565Z,76.36
2022-12-26T16:40:23.346Z,76.57
2022-12-26T16:43:05.552Z,76.35
2022-12-26T16:45:36.489Z,76.42
2022-12-26T16:48:08.298Z,76.44
2022-12-26T16:50:46.123Z,76.62
2022-12-26T16:53:18.565Z,76.91
2022-12-26T16:55:49.137Z,76.57
2022-12-26T16:58:23.022Z,76.51
2022-12-26T17:01:09.110Z,76.71
2022-12-26T17:03:41.965Z,76.57
2022-12-26T17:06:15.313Z,76.79
2022-12-26T17:08:48.521Z,76.65
2022-12-26T17:11:17.341Z,76.92
2022-12-26T17:13:52.856Z,77.44
2022-12-26T17:16:25.840Z,76.48
2022-12-26T17:18:55.180Z,76.60
2022-12-26T17:21:30.218Z,76.70
2022-12-26T17:24:26.280Z,76.45
2022-12-26T17:27:10.027Z,76.51
2022-12-26T17:29:48.272Z,76.43
2022-12-26T17:32:22.023Z,76.44
2022-12-26T17:34:50.687Z,76.24
2022-12-26T17:37:24.709Z,76.41
2022-12-26T17:40:02.585Z,76.34
2022-12-26T17:42:41.002Z,76.44
2022-12-26T17:45:11.137Z,76.69
2022-12-26T17:47:39.546Z,76.65
2022-12-26T17:50:08.165Z,76.77
2022-12-26T17:52:37.486Z,76.57
2022-12-26T17:55:16.493Z,76.85
2022-12-26T17:57:44.839Z,76.54
2022-12-26T18:00:19.235Z,76.60
2022-12-26T18:02:47.812Z,76.73
2022-12-26T18:05:16.759Z,77.01
2022-12-26T18:07:45.825Z,76.63
2022-12-26T18:10:20.940Z,76.70
2022-12-26T18:12:50.089Z,76.58
2022-12-26T18:15:19.431Z,76.54
2022-12-26T18:17:49.372Z,76.77
2022-12-26T18:20:19.291Z,76.12
2022-12-26T18:22:48.389Z,76.53
2022-12-26T18:25:19.669Z,76.43
2022-12-26T18:27:49.320Z,76.41
2022-12-26T18:30:19.777Z,76.44
2022-12-26T18:32:49.266Z,76.56
2022-12-26T18:35:19.089Z,76.50
2022-12-26T18:37:49.544Z,76.41
2022-12-26T18:40:29.666Z,76.44
2022-12-26T18:42:58.422Z,76.66
2022-12-26T18:45:27.048Z,76.84
2022-12-26T18:47:55.409Z,76.93
2022-12-26T18:50:24.490Z,76.82
2022-12-26T18:52:53.968Z,76.77
2022-12-26T18:55:25.369Z,76.82
2022-12-26T18:57:54.620Z,76.86
2022-12-26T19:00:24.032Z,76.60
2022-12-26T19:02:52.916Z,76.82
2022-12-26T19:05:24.029Z,76.75
2022-12-26T19:07:52.385Z,76.89
2022-12-26T19:10:24.772Z,76.79
2022-12-26T19:12:53.363Z,76.81
2022-12-26T19:15:22.117Z,76.72
2022-12-26T19:17:50.542Z,76.89
2022-12-26T19:20:25.296Z,76.60
2022-12-26T19:22:55.214Z,76.98
2022-12-26T19:25:26.924Z,76.69
2022-12-26T19:27:55.685Z,76.84
2022-12-26T19:30:24.372Z,76.76
2022-12-26T19:32:52.640Z,76.76
2022-12-26T19:35:21.334Z,76.70
2022-12-26T19:37:51.815Z,76.82
2022-12-26T19:40:24.998Z,76.91
2022-12-26T19:42:55.033Z,76.66
2022-12-26T19:45:23.478Z,76.64
2022-12-26T19:47:54.582Z,76.94
2022-12-26T19:50:22.958Z,76.68
2022-12-26T19:52:51.280Z,76.69
2022-12-26T19:55:19.958Z,76.63
2022-12-26T19:57:48.263Z,76.67
2022-12-26T20:00:18.233Z,76.81
2022-12-26T20:02:46.954Z,76.80
2022-12-26T20:05:15.324Z,76.85
2022-12-26T20:07:43.592Z,76.84
2022-12-26T20:10:11.930Z,76.96
2022-12-26T20:12:40.250Z,76.79
2022-12-26T20:15:09.567Z,76.70
2022-12-26T20:17:39.270Z,76.87
2022-12-26T20:20:09.247Z,76.70
2022-12-26T20:22:37.817Z,76.67
2022-12-26T20:25:09.886Z,76.75
2022-12-26T20:27:38.289Z,76.66
2022-12-26T20:30:10.096Z,76.70
2022-12-26T20:32:44.019Z,76.79
2022-12-26T20:35:12.565Z,76.76
2022-12-26T20:37:40.970Z,76.64
2022-12-26T20:40:10.913Z,76.63
2022-12-26T20:42:39.222Z,76.44
2022-12-26T20:45:09.423Z,76.50
2022-12-26T20:47:39.158Z,76.49
2022-12-26T20:50:09.132Z,76.57
2022-12-26T20:52:37.477Z,76.31
2022-12-26T20:55:08.058Z,76.45
2022-12-26T20:57:36.376Z,76.55
2022-12-26T21:00:07.031Z,76.51
2022-12-26T21:02:35.686Z,76.66
2022-12-26T21:05:07.478Z,76.50
2022-12-26T21:07:36.007Z,76.64
2022-12-26T21:10:06.163Z,76.68
2022-12-26T21:12:34.863Z,76.66
2022-12-26T21:15:03.194Z,76.73
2022-12-26T21:17:32.600Z,76.79
2022-12-26T21:20:00.962Z,76.86
2022-12-26T21:22:30.674Z,76.93
2022-12-26T21:24:59.016Z,76.94
2022-12-26T21:27:27.376Z,76.95
2022-12-26T21:29:55.767Z,76.80
2022-12-26T21:32:24.072Z,76.86
2022-12-26T21:34:52.427Z,76.81
2022-12-26T21:37:37.952Z,76.76
2022-12-26T21:40:09.538Z,76.61
2022-12-26T21:42:38.625Z,76.64
2022-12-26T21:45:08.329Z,76.68
2022-12-26T21:47:37.325Z,76.68
2022-12-26T21:50:06.223Z,76.66
2022-12-26T21:52:34.680Z,76.76
2022-12-26T21:55:20.824Z,76.58
2022-12-26T21:57:50.605Z,76.65
2022-12-26T22:00:19.255Z,76.69
2022-12-26T22:03:05.256Z,76.81
2022-12-26T22:05:37.501Z,76.94
2022-12-26T22:08:08.393Z,76.89
2022-12-26T22:10:55.393Z,76.85
2022-12-26T22:13:26.783Z,76.85
2022-12-26T22:16:07.176Z,76.79
2022-12-26T22:18:38.311Z,76.82
2022-12-26T22:21:10.510Z,76.84
2022-12-26T22:23:39.507Z,76.68
2022-12-26T22:26:10.388Z,76.63
2022-12-26T22:28:40.434Z,76.64
2022-12-26T22:31:08.978Z,76.74
2022-12-26T22:33:37.327Z,76.94
2022-12-26T22:36:08.300Z,76.94
2022-12-26T22:38:37.478Z,76.95
2022-12-26T22:41:07.589Z,76.82
2022-12-26T22:43:36.890Z,76.95
2022-12-26T22:46:07.341Z,77.00
2022-12-26T22:48:35.830Z,77.12
2022-12-26T22:51:04.349Z,77.08
2022-12-26T22:53:33.571Z,77.18
2022-12-26T22:56:04.400Z,77.09
2022-12-26T22:58:34.041Z,77.05
2022-12-26T23:01:02.442Z,76.97
2022-12-26T23:03:32.131Z,76.91
2022-12-26T23:06:00.763Z,76.95
2022-12-26T23:08:29.579Z,77.02
2022-12-26T23:10:59.565Z,77.00
2022-12-26T23:13:28.470Z,77.00
2022-12-26T23:16:02.505Z,77.07
2022-12-26T23:18:57.284Z,77.15
2022-12-26T23:21:42.159Z,77.23
2022-12-26T23:24:14.911Z,77.21
2022-12-26T23:26:45.345Z,77.14
2022-12-26T23:29:32.208Z,77.02
2022-12-26T23:32:00.848Z,76.86
2022-12-26T23:34:31.350Z,76.89
2022-12-26T23:36:59.773Z,76.84
2022-12-26T23:39:28.109Z,77.05
2022-12-26T23:41:56.737Z,77.43
2022-12-26T23:44:25.071Z,77.54
2022-12-26T23:46:53.312Z,77.24
2022-12-26T23:49:21.624Z,77.18
2022-12-26T23:51:51.403Z,77.50
2022-12-26T23:54:19.695Z,77.64
2022-12-26T23:56:47.917Z,77.64
2022-12-26T23:59:16.191Z,77.60
